createdAt,value
2022-10-01T00:01:18.580Z,15.12
2022-10-01T00:03:47.878Z,15.12
2022-10-01T00:06:18.693Z,15.07
2022-10-01T00:08:48.844Z,15.05
2022-10-01T00:11:22.204Z,15.06
2022-10-01T00:13:55.276Z,15.09
2022-10-01T00:16:27.366Z,15.13
2022-10-01T00:18:55.178Z,15.08
2022-10-01T00:21:25.215Z,15.04
2022-10-01T00:24:00.797Z,15.05
2022-10-01T00:26:30.857Z,15.02
2022-10-01T00:29:00.360Z,15.03
2022-10-01T00:31:28.538Z,15.00
2022-10-01T00:33:58.335Z,14.96
2022-10-01T00:36:27.296Z,14.93
2022-10-01T00:39:00.473Z,14.87
2022-10-01T00:41:32.913Z,14.90
2022-10-01T00:44:03.887Z,14.95
2022-10-01T00:46:45.170Z,14.97
2022-10-01T00:49:24.337Z,14.96
2022-10-01T00:51:57.301Z,15.02
2022-10-01T00:54:49.344Z,15.03
2022-10-01T00:57:21.859Z,14.97
2022-10-01T00:59:50.454Z,14.96
2022-10-01T01:02:17.808Z,14.97
2022-10-01T01:04:45.151Z,14.94
2022-10-01T01:07:12.995Z,14.94
2022-10-01T01:09:47.084Z,15.01
2022-10-01T01:12:52.788Z,15.02
2022-10-01T01:15:39.032Z,15.10
2022-10-01T01:18:40.282Z,15.03
2022-10-01T01:21:19.704Z,15.02
2022-10-01T01:24:17.902Z,15.01
2022-10-01T01:26:57.038Z,14.97
2022-10-01T01:29:32.551Z,14.87
2022-10-01T01:32:09.456Z,14.93
2022-10-01T01:34:44.005Z,14.84
2022-10-01T01:37:17.569Z,14.87
2022-10-01T01:39:50.994Z,14.85
2022-10-01T01:42:24.720Z,14.80
2022-10-01T01:44:58.026Z,14.73
2022-10-01T01:47:32.938Z,14.67
2022-10-01T01:50:02.926Z,14.71
2022-10-01T01:52:30.579Z,14.66
2022-10-01T01:54:58.275Z,14.60
2022-10-01T01:57:28.712Z,14.52
2022-10-01T01:59:56.011Z,14.47
2022-10-01T02:02:33.201Z,14.45
2022-10-01T02:05:05.011Z,14.45
2022-10-01T02:07:55.970Z,14.43
2022-10-01T02:10:26.174Z,14.52
2022-10-01T02:13:01.630Z,14.40
2022-10-01T02:15:41.830Z,14.40
2022-10-01T02:18:28.253Z,14.33
2022-10-01T02:21:05.560Z,14.29
2022-10-01T02:23:40.251Z,14.29
2022-10-01T02:26:14.124Z,14.19
2022-10-01T02:28:42.529Z,14.27
2022-10-01T02:31:12.793Z,14.30
2022-10-01T02:33:42.100Z,14.30
2022-10-01T02:36:11.756Z,14.21
2022-10-01T02:38:42.127Z,14.10
2022-10-01T02:41:12.935Z,14.10
2022-10-01T02:43:51.708Z,13.97
2022-10-01T02:46:36.618Z,13.93
2022-10-01T02:49:04.845Z,13.90
2022-10-01T02:51:43.803Z,13.87
2022-10-01T02:54:19.931Z,13.88
2022-10-01T02:57:05.653Z,13.87
2022-10-01T02:59:32.908Z,13.72
2022-10-01T03:02:00.410Z,13.69
2022-10-01T03:04:30.963Z,13.71
2022-10-01T03:07:06.121Z,13.68
2022-10-01T03:09:34.980Z,13.65
2022-10-01T03:12:02.307Z,13.63
2022-10-01T03:14:29.686Z,13.65
2022-10-01T03:16:56.970Z,13.61
2022-10-01T03:19:24.263Z,13.71
2022-10-01T03:21:51.578Z,13.77
2022-10-01T03:24:19.344Z,13.79
2022-10-01T03:26:46.602Z,13.76
2022-10-01T03:29:14.736Z,13.79
2022-10-01T03:31:42.144Z,13.76
2022-10-01T03:34:09.511Z,13.56
2022-10-01T03:36:37.502Z,13.50
2022-10-01T03:39:04.826Z,13.52
2022-10-01T03:41:32.392Z,13.42
2022-10-01T03:44:00.552Z,13.39
2022-10-01T03:46:28.121Z,13.46
2022-10-01T03:48:57.712Z,13.47
2022-10-01T03:51:25.248Z,13.47
2022-10-01T03:53:53.791Z,13.38
2022-10-01T03:56:21.107Z,13.41
2022-10-01T03:58:48.445Z,13.43
2022-10-01T04:01:15.794Z,13.45
2022-10-01T04:03:43.902Z,13.56
2022-10-01T04:06:11.653Z,13.57
2022-10-01T04:08:39.519Z,13.59
2022-10-01T04:11:07.177Z,13.72
2022-10-01T04:13:34.907Z,13.79
2022-10-01T04:16:04.044Z,13.69
2022-10-01T04:18:31.948Z,13.69
2022-10-01T04:20:59.652Z,13.70
2022-10-01T04:23:27.289Z,13.72
2022-10-01T04:25:54.893Z,13.72
2022-10-01T04:28:22.230Z,13.83
2022-10-01T04:31:09.709Z,13.73
2022-10-01T04:33:36.994Z,13.64
2022-10-01T04:36:04.314Z,13.54
2022-10-01T04:38:31.651Z,13.47
2022-10-01T04:40:59.030Z,13.48
2022-10-01T04:43:26.402Z,13.48
2022-10-01T04:45:53.705Z,13.60
2022-10-01T04:48:21.497Z,13.63
2022-10-01T04:50:48.806Z,13.63
2022-10-01T04:53:16.101Z,13.61
2022-10-01T04:55:43.747Z,13.66
2022-10-01T04:58:11.022Z,13.53
2022-10-01T05:00:38.353Z,13.52
2022-10-01T05:03:05.695Z,13.53
2022-10-01T05:05:34.976Z,13.54
2022-10-01T05:08:04.659Z,13.53
2022-10-01T05:10:32.291Z,13.47
2022-10-01T05:13:02.155Z,13.38
2022-10-01T05:15:30.389Z,13.27
2022-10-01T05:17:57.678Z,13.20
2022-10-01T05:20:27.067Z,13.35
2022-10-01T05:22:56.382Z,13.40
2022-10-01T05:25:23.862Z,13.33
2022-10-01T05:27:51.190Z,13.28
2022-10-01T05:30:24.173Z,13.25
2022-10-01T05:32:57.966Z,13.19
2022-10-01T05:35:25.540Z,13.15
2022-10-01T05:37:54.370Z,13.25
2022-10-01T05:40:21.708Z,13.30
2022-10-01T05:42:49.063Z,13.32
2022-10-01T05:45:21.013Z,13.45
2022-10-01T05:47:49.761Z,13.88
2022-10-01T05:50:17.067Z,14.71
2022-10-01T05:52:52.992Z,15.71
2022-10-01T05:55:21.011Z,16.35
2022-10-01T05:58:01.258Z,17.15
2022-10-01T06:00:30.236Z,17.52
2022-10-01T06:02:58.831Z,17.92
2022-10-01T06:05:27.949Z,18.60
2022-10-01T06:07:55.378Z,18.66
2022-10-01T06:10:26.431Z,18.87
2022-10-01T06:12:58.840Z,19.15
2022-10-01T06:15:26.092Z,18.52
2022-10-01T06:17:53.375Z,18.62
2022-10-01T06:20:21.006Z,18.63
2022-10-01T06:22:56.351Z,19.02
2022-10-01T06:25:24.705Z,18.48
2022-10-01T06:28:00.067Z,19.76
2022-10-01T06:30:29.553Z,20.47
2022-10-01T06:33:02.741Z,21.10
2022-10-01T06:35:33.907Z,21.55
2022-10-01T06:38:06.121Z,20.54
2022-10-01T06:40:33.425Z,19.38
2022-10-01T06:43:00.717Z,18.20
2022-10-01T06:45:30.194Z,17.28
2022-10-01T06:48:02.580Z,15.88
2022-10-01T06:50:34.352Z,15.75
2022-10-01T06:53:04.570Z,15.83
2022-10-01T06:55:34.113Z,15.68
2022-10-01T06:58:07.785Z,15.50
2022-10-01T07:00:36.677Z,15.49
2022-10-01T07:03:09.087Z,15.28
2022-10-01T07:05:37.736Z,15.26
2022-10-01T07:08:05.087Z,15.48
2022-10-01T07:10:34.313Z,15.38
2022-10-01T07:13:18.379Z,15.53
2022-10-01T07:15:46.361Z,15.58
2022-10-01T07:18:13.860Z,15.88
2022-10-01T07:20:41.489Z,16.83
2022-10-01T07:23:11.994Z,17.43
2022-10-01T07:25:40.763Z,17.76
2022-10-01T07:28:16.290Z,18.15
2022-10-01T07:31:01.409Z,19.89
2022-10-01T07:33:29.331Z,20.63
2022-10-01T07:36:00.549Z,22.17
2022-10-01T07:38:27.794Z,22.31
2022-10-01T07:40:57.244Z,23.17
2022-10-01T07:43:24.509Z,22.41
2022-10-01T07:45:55.109Z,22.33
2022-10-01T07:48:22.642Z,23.20
2022-10-01T07:50:53.082Z,24.27
2022-10-01T07:53:20.510Z,25.37
2022-10-01T07:55:49.083Z,24.48
2022-10-01T07:58:16.545Z,25.12
2022-10-01T08:00:43.800Z,24.54
2022-10-01T08:03:13.777Z,24.93
2022-10-01T08:05:43.224Z,24.23
2022-10-01T08:08:10.541Z,24.72
2022-10-01T08:10:38.559Z,23.80
2022-10-01T08:13:14.834Z,23.41
2022-10-01T08:15:46.632Z,23.57
2022-10-01T08:18:14.326Z,23.30
2022-10-01T08:20:42.146Z,22.38
2022-10-01T08:23:11.975Z,22.58
2022-10-01T08:25:40.510Z,22.29
2022-10-01T08:28:09.757Z,22.16
2022-10-01T08:30:42.199Z,22.43
2022-10-01T08:33:12.478Z,22.39
2022-10-01T08:35:41.161Z,21.67
2022-10-01T08:38:09.798Z,21.43
2022-10-01T08:40:44.963Z,21.77
2022-10-01T08:43:37.124Z,21.34
2022-10-01T08:46:06.713Z,21.77
2022-10-01T08:48:59.127Z,21.35
2022-10-01T08:51:42.243Z,20.75
2022-10-01T08:54:37.544Z,20.69
2022-10-01T08:57:16.236Z,20.68
2022-10-01T08:59:52.217Z,21.27
2022-10-01T09:02:26.780Z,20.66
2022-10-01T09:05:01.992Z,20.63
2022-10-01T09:07:46.064Z,20.35
2022-10-01T09:10:35.851Z,21.01
2022-10-01T09:13:18.678Z,20.76
2022-10-01T09:16:28.197Z,19.98
2022-10-01T09:19:15.669Z,20.20
2022-10-01T09:21:46.809Z,20.18
2022-10-01T09:24:38.393Z,19.68
2022-10-01T09:27:13.626Z,19.26
2022-10-01T09:29:45.874Z,19.33
2022-10-01T09:32:19.395Z,19.98
2022-10-01T09:34:47.352Z,20.26
2022-10-01T09:37:27.997Z,20.36
2022-10-01T09:40:17.136Z,20.15
2022-10-01T09:42:45.264Z,19.96
2022-10-01T09:45:14.788Z,19.61
2022-10-01T09:47:45.442Z,19.77
2022-10-01T09:50:17.542Z,19.44
2022-10-01T09:52:50.436Z,19.81
2022-10-01T09:55:32.735Z,19.98
2022-10-01T09:58:07.390Z,19.96
2022-10-01T10:00:37.854Z,19.80
2022-10-01T10:03:05.329Z,19.61
2022-10-01T10:05:49.346Z,19.61
2022-10-01T10:08:23.501Z,19.84
2022-10-01T10:10:57.317Z,19.39
2022-10-01T10:13:32.104Z,19.61
2022-10-01T10:16:02.706Z,19.47
2022-10-01T10:18:36.894Z,19.47
2022-10-01T10:21:20.702Z,19.21
2022-10-01T10:23:59.551Z,19.50
2022-10-01T10:26:33.346Z,20.17
2022-10-01T10:29:02.975Z,20.23
2022-10-01T10:31:41.009Z,20.62
2022-10-01T10:34:19.199Z,20.97
2022-10-01T10:36:47.179Z,21.25
2022-10-01T10:39:25.795Z,20.93
2022-10-01T10:41:53.954Z,20.79
2022-10-01T10:44:25.152Z,20.99
2022-10-01T10:46:54.137Z,20.51
2022-10-01T10:49:33.367Z,20.12
2022-10-01T10:52:01.953Z,19.77
2022-10-01T10:54:37.564Z,20.32
2022-10-01T10:57:21.310Z,20.40
2022-10-01T11:00:11.424Z,20.68
2022-10-01T11:02:48.163Z,20.41
2022-10-01T11:05:24.837Z,20.79
2022-10-01T11:07:59.715Z,21.46
2022-10-01T11:10:47.986Z,21.60
2022-10-01T11:13:32.800Z,21.74
2022-10-01T11:16:22.346Z,21.68
2022-10-01T11:19:16.860Z,21.74
2022-10-01T11:22:02.599Z,21.81
2022-10-01T11:24:45.956Z,21.06
2022-10-01T11:27:16.337Z,21.11
2022-10-01T11:29:53.020Z,21.40
2022-10-01T11:32:41.456Z,21.57
2022-10-01T11:35:22.728Z,21.90
2022-10-01T11:38:22.476Z,21.34
2022-10-01T11:40:56.463Z,21.10
2022-10-01T11:43:54.410Z,21.55
2022-10-01T11:46:34.127Z,21.35
2022-10-01T11:49:15.478Z,21.91
2022-10-01T11:51:50.921Z,21.96
2022-10-01T11:54:25.386Z,21.91
2022-10-01T11:57:15.679Z,21.77
2022-10-01T11:59:55.936Z,21.80
2022-10-01T12:02:35.550Z,21.71
2022-10-01T12:05:17.211Z,21.27
2022-10-01T12:07:58.992Z,21.04
2022-10-01T12:10:38.889Z,21.12
2022-10-01T12:13:29.103Z,21.01
2022-10-01T12:16:06.016Z,20.65
2022-10-01T12:18:52.338Z,20.97
2022-10-01T12:21:27.694Z,21.23
2022-10-01T12:24:01.447Z,21.43
2022-10-01T12:27:06.945Z,21.50
2022-10-01T12:29:54.024Z,21.60
2022-10-01T12:32:42.987Z,21.13
2022-10-01T12:35:16.347Z,21.21
2022-10-01T12:37:58.788Z,21.52
2022-10-01T12:40:45.993Z,21.10
2022-10-01T12:43:16.001Z,20.93
2022-10-01T12:46:04.948Z,20.84
2022-10-01T12:48:48.376Z,21.09
2022-10-01T12:51:37.011Z,21.53
2022-10-01T12:54:12.708Z,21.66
2022-10-01T12:56:50.070Z,22.04
2022-10-01T12:59:40.917Z,22.13
2022-10-01T13:02:45.709Z,22.28
2022-10-01T13:05:12.967Z,21.95
2022-10-01T13:07:42.253Z,22.08
2022-10-01T13:10:39.569Z,21.83
2022-10-01T13:13:18.167Z,22.45
2022-10-01T13:15:49.508Z,22.60
2022-10-01T13:18:44.490Z,22.45
2022-10-01T13:21:30.340Z,22.09
2022-10-01T13:24:15.465Z,22.25
2022-10-01T13:26:56.015Z,22.32
2022-10-01T13:29:32.242Z,22.52
2022-10-01T13:32:04.595Z,22.34
2022-10-01T13:34:41.102Z,22.13
2022-10-01T13:37:19.309Z,22.31
2022-10-01T13:39:47.925Z,22.58
2022-10-01T13:42:24.173Z,22.49
2022-10-01T13:44:58.067Z,22.42
2022-10-01T13:47:25.912Z,22.51
2022-10-01T13:50:00.298Z,22.74
2022-10-01T13:52:28.087Z,22.37
2022-10-01T13:54:56.924Z,22.32
2022-10-01T13:57:36.241Z,22.55
2022-10-01T14:00:22.873Z,22.66
2022-10-01T14:03:25.561Z,22.60
2022-10-01T14:05:57.883Z,22.74
2022-10-01T14:08:51.356Z,22.86
2022-10-01T14:11:45.664Z,22.70
2022-10-01T14:14:41.580Z,22.73
2022-10-01T14:17:13.015Z,22.54
2022-10-01T14:19:56.792Z,22.56
2022-10-01T14:23:10.901Z,22.13
2022-10-01T14:26:01.856Z,22.19
2022-10-01T14:29:08.353Z,22.18
2022-10-01T14:31:35.659Z,22.12
2022-10-01T14:34:14.589Z,22.19
2022-10-01T14:36:48.030Z,21.76
2022-10-01T14:39:18.357Z,21.86
2022-10-01T14:41:48.269Z,21.86
2022-10-01T14:44:22.013Z,21.56
2022-10-01T14:46:51.391Z,21.54
2022-10-01T14:49:22.209Z,21.41
2022-10-01T14:52:02.449Z,21.45
2022-10-01T14:54:37.402Z,21.50
2022-10-01T14:57:11.720Z,21.46
2022-10-01T14:59:40.754Z,21.40
2022-10-01T15:02:20.707Z,21.39
2022-10-01T15:04:50.663Z,21.51
2022-10-01T15:07:19.284Z,21.56
2022-10-01T15:09:47.629Z,21.76
2022-10-01T15:12:17.183Z,21.64
2022-10-01T15:14:49.936Z,21.57
2022-10-01T15:17:27.267Z,21.63
2022-10-01T15:19:56.731Z,21.80
2022-10-01T15:22:29.434Z,21.69
2022-10-01T15:25:01.597Z,21.81
2022-10-01T15:27:29.042Z,21.77
2022-10-01T15:29:58.749Z,21.80
2022-10-01T15:32:28.142Z,21.88
2022-10-01T15:35:01.599Z,22.00
2022-10-01T15:37:34.898Z,21.95
2022-10-01T15:40:05.910Z,21.78
2022-10-01T15:42:35.027Z,21.63
2022-10-01T15:45:25.908Z,21.68
2022-10-01T15:47:56.928Z,21.61
2022-10-01T15:50:32.677Z,21.69
2022-10-01T15:53:10.234Z,21.63
2022-10-01T15:55:49.523Z,21.29
2022-10-01T15:58:22.802Z,21.34
2022-10-01T16:00:53.108Z,21.32
2022-10-01T16:03:43.307Z,21.20
2022-10-01T16:06:23.612Z,21.13
2022-10-01T16:09:06.274Z,21.17
2022-10-01T16:12:11.715Z,21.03
2022-10-01T16:14:42.693Z,20.98
2022-10-01T16:17:19.199Z,20.91
2022-10-01T16:19:56.707Z,20.85
2022-10-01T16:22:25.591Z,20.63
2022-10-01T16:25:01.462Z,20.57
2022-10-01T16:27:35.570Z,20.50
2022-10-01T16:30:11.014Z,20.54
2022-10-01T16:32:38.600Z,20.40
2022-10-01T16:35:25.153Z,20.51
2022-10-01T16:37:55.147Z,20.20
2022-10-01T16:40:28.364Z,20.13
2022-10-01T16:42:57.342Z,19.92
2022-10-01T16:45:27.724Z,20.09
2022-10-01T16:47:56.777Z,19.88
2022-10-01T16:50:25.097Z,19.75
2022-10-01T16:52:54.378Z,19.71
2022-10-01T16:55:27.102Z,19.62
2022-10-01T16:57:57.174Z,19.56
2022-10-01T17:00:26.302Z,19.62
2022-10-01T17:02:57.227Z,19.47
2022-10-01T17:05:30.478Z,19.39
2022-10-01T17:08:00.986Z,19.33
2022-10-01T17:10:33.668Z,19.32
2022-10-01T17:13:02.044Z,19.25
2022-10-01T17:15:29.738Z,19.08
2022-10-01T17:17:58.487Z,19.21
2022-10-01T17:20:28.774Z,19.05
2022-10-01T17:22:57.859Z,19.11
2022-10-01T17:25:31.021Z,18.89
2022-10-01T17:27:59.789Z,18.87
2022-10-01T17:30:29.951Z,18.71
2022-10-01T17:32:59.928Z,18.67
2022-10-01T17:35:29.416Z,18.62
2022-10-01T17:37:56.837Z,18.71
2022-10-01T17:40:24.712Z,18.59
2022-10-01T17:42:52.053Z,18.50
2022-10-01T17:45:22.268Z,18.52
2022-10-01T17:47:51.261Z,18.44
2022-10-01T17:50:18.698Z,18.42
2022-10-01T17:52:49.361Z,18.34
2022-10-01T17:55:19.822Z,18.16
2022-10-01T17:57:47.283Z,18.11
2022-10-01T18:00:14.736Z,18.10
2022-10-01T18:02:43.268Z,18.04
2022-10-01T18:05:14.507Z,18.00
2022-10-01T18:07:42.917Z,18.03
2022-10-01T18:10:13.536Z,18.12
2022-10-01T18:12:41.034Z,18.32
2022-10-01T18:15:13.706Z,18.30
2022-10-01T18:17:43.573Z,18.40
2022-10-01T18:20:20.149Z,18.31
2022-10-01T18:22:47.808Z,18.25
2022-10-01T18:25:16.191Z,18.32
2022-10-01T18:27:43.769Z,18.29
2022-10-01T18:30:11.269Z,18.27
2022-10-01T18:32:56.959Z,18.19
2022-10-01T18:35:33.201Z,18.15
2022-10-01T18:38:20.703Z,18.11
2022-10-01T18:41:04.606Z,18.06
2022-10-01T18:43:36.387Z,18.07
2022-10-01T18:46:06.547Z,18.11
2022-10-01T18:48:49.074Z,18.13
2022-10-01T18:51:28.253Z,18.13
2022-10-01T18:54:02.282Z,18.09
2022-10-01T18:56:33.534Z,18.14
2022-10-01T18:59:22.192Z,18.04
2022-10-01T19:02:05.370Z,17.99
2022-10-01T19:04:56.117Z,17.98
2022-10-01T19:07:29.395Z,18.05
2022-10-01T19:10:26.557Z,17.86
2022-10-01T19:13:05.766Z,17.95
2022-10-01T19:16:00.463Z,17.85
2022-10-01T19:18:46.244Z,18.07
2022-10-01T19:21:18.117Z,17.86
2022-10-01T19:24:22.941Z,18.02
2022-10-01T19:27:04.553Z,17.89
2022-10-01T19:30:06.915Z,17.83
2022-10-01T19:32:56.444Z,17.66
2022-10-01T19:35:41.823Z,17.67
2022-10-01T19:38:26.537Z,17.55
2022-10-01T19:41:01.397Z,17.65
2022-10-01T19:43:42.759Z,17.66
2022-10-01T19:46:26.533Z,17.59
2022-10-01T19:49:04.275Z,17.58
2022-10-01T19:51:57.151Z,17.52
2022-10-01T19:54:33.659Z,17.46
2022-10-01T19:57:21.986Z,17.44
2022-10-01T19:59:51.266Z,17.40
2022-10-01T20:02:45.823Z,17.31
2022-10-01T20:05:20.354Z,17.25
2022-10-01T20:08:05.513Z,17.22
2022-10-01T20:10:59.331Z,17.10
2022-10-01T20:13:38.747Z,17.04
2022-10-01T20:16:20.214Z,17.01
2022-10-01T20:19:08.521Z,17.17
2022-10-01T20:21:41.420Z,17.12
2022-10-01T20:24:20.986Z,17.28
2022-10-01T20:27:03.808Z,17.31
2022-10-01T20:30:00.363Z,17.28
2022-10-01T20:32:39.558Z,17.14
2022-10-01T20:35:32.573Z,17.20
2022-10-01T20:38:20.151Z,17.13
2022-10-01T20:40:54.011Z,17.18
2022-10-01T20:43:33.172Z,17.00
2022-10-01T20:46:09.729Z,16.80
2022-10-01T20:48:41.660Z,16.75
2022-10-01T20:51:17.208Z,16.57
2022-10-01T20:53:54.921Z,16.62
2022-10-01T20:56:28.625Z,16.68
2022-10-01T20:59:07.727Z,16.91
2022-10-01T21:01:40.144Z,16.81
2022-10-01T21:04:16.660Z,16.79
2022-10-01T21:06:47.547Z,16.70
2022-10-01T21:09:25.662Z,16.68
2022-10-01T21:12:02.957Z,16.66
2022-10-01T21:14:38.419Z,16.64
2022-10-01T21:17:27.197Z,16.56
2022-10-01T21:20:03.405Z,16.68
2022-10-01T21:22:49.584Z,16.48
2022-10-01T21:25:30.710Z,16.51
2022-10-01T21:28:26.855Z,16.55
2022-10-01T21:31:20.677Z,16.48
2022-10-01T21:34:02.066Z,16.47
2022-10-01T21:36:47.285Z,16.46
2022-10-01T21:39:38.825Z,16.28
2022-10-01T21:42:15.455Z,16.29
2022-10-01T21:44:48.879Z,16.34
2022-10-01T21:47:41.211Z,16.31
2022-10-01T21:50:35.369Z,16.24
2022-10-01T21:53:29.031Z,16.23
2022-10-01T21:56:08.343Z,16.24
2022-10-01T21:58:53.621Z,16.25
2022-10-01T22:01:29.831Z,16.15
2022-10-01T22:04:23.399Z,16.19
2022-10-01T22:07:03.626Z,16.25
2022-10-01T22:10:07.986Z,16.23
2022-10-01T22:12:40.380Z,16.04
2022-10-01T22:15:21.177Z,16.08
2022-10-01T22:17:51.336Z,16.09
2022-10-01T22:20:22.499Z,15.93
2022-10-01T22:22:54.967Z,15.94
2022-10-01T22:25:22.335Z,15.83
2022-10-01T22:27:55.514Z,15.74
2022-10-01T22:30:27.343Z,15.85
2022-10-01T22:33:05.438Z,15.82
2022-10-01T22:35:39.634Z,15.70
2022-10-01T22:38:18.780Z,15.73
2022-10-01T22:40:52.875Z,15.70
2022-10-01T22:43:20.383Z,15.75
2022-10-01T22:46:21.314Z,15.88
2022-10-01T22:49:01.005Z,15.99
2022-10-01T22:51:45.545Z,15.92
2022-10-01T22:54:15.883Z,15.88
2022-10-01T22:57:13.099Z,15.79
2022-10-01T23:00:01.635Z,15.90
2022-10-01T23:02:36.497Z,15.83
2022-10-01T23:05:40.638Z,15.69
2022-10-01T23:08:28.399Z,15.77
2022-10-01T23:11:02.221Z,15.80
2022-10-01T23:13:56.729Z,15.83
2022-10-01T23:16:36.666Z,15.76
2022-10-01T23:19:06.995Z,15.57
2022-10-01T23:21:55.351Z,15.54
2022-10-01T23:24:41.529Z,15.43
2022-10-01T23:27:42.203Z,15.25
2022-10-01T23:30:15.705Z,15.23
2022-10-01T23:32:58.336Z,15.21
2022-10-01T23:35:42.673Z,15.33
2022-10-01T23:38:39.073Z,15.35
2022-10-01T23:41:18.878Z,15.11
2022-10-01T23:43:49.926Z,14.98
2022-10-01T23:46:34.286Z,15.01
2022-10-01T23:49:18.041Z,14.95
2022-10-01T23:51:57.345Z,14.91
2022-10-01T23:54:36.555Z,14.82
2022-10-01T23:57:28.185Z,14.85
